Gokay K — TCHF — position and weather

sailwx.info

Track history (hours):
 
Tides and Currents Weather Stations Pressure Air Temp Water Temp Dewpoint Dewpoint Depression Visibility Wind Speed Wind Dir Waves Ship Positions

Gokay K

Last reported at 2014-Oct-25 19:10 UTC. Time now 2014-Oct-25 23:00 UTC.
Position N 40°26' E 029°03'.

; draft 7.3 m.

Type: Cargo ship. MMSI: 271000029.

Date/timePositionNaut miles runAvg speedWind from/ knotsBaromVisibWave heightAir tempDewpointWater temp
2014-Oct-25 19:10N 40°26' E 029°03'15 7.4
2014-Oct-25 17:06N 40°34' E 028°46'610.4
2014-Oct-25 16:34N 40°38' E 028°52'1010.2
2014-Oct-25 15:34N 40°42' E 029°04'10 9.5
2014-Oct-25 14:33N 40°44' E 029°17'10 9.7
2014-Oct-25 13:34N 40°45' E 029°29'1 0.0
2014-Oct-24 02:24N 40°46' E 029°28'0 0.0
2014-Oct-23 09:33N 40°46' E 029°28'6 5.7
2014-Oct-23 08:31N 40°43' E 029°21'7 7.6
2014-Oct-23 07:33N 40°46' E 029°13'8 8.4
2014-Oct-23 06:33N 40°50' E 029°03'8 7.4
2014-Oct-23 05:32N 40°56' E 028°57'  
Track history (hours):
 
Tides and Currents Weather Stations Pressure Air Temp Water Temp Dewpoint Dewpoint Depression Visibility Wind Speed Wind Dir Waves Ship Positions

Gokay K

Last reported at 2014-Oct-25 19:10 UTC. Time now 2014-Oct-25 23:00 UTC.
Position N 40°26' E 029°03'.

; draft 7.3 m.

Type: Cargo ship. MMSI: 271000029.

Date/timePositionNaut miles runAvg speedWind from/ knotsBaromVisibWave heightAir tempDewpointWater temp
2014-Oct-25 19:10N 40°26' E 029°03'15 7.4
2014-Oct-25 17:06N 40°34' E 028°46'610.4
2014-Oct-25 16:34N 40°38' E 028°52'1010.2
2014-Oct-25 15:34N 40°42' E 029°04'10 9.5
2014-Oct-25 14:33N 40°44' E 029°17'10 9.7
2014-Oct-25 13:34N 40°45' E 029°29'1 0.0
2014-Oct-24 02:24N 40°46' E 029°28'0 0.0
2014-Oct-23 09:33N 40°46' E 029°28'6 5.7
2014-Oct-23 08:31N 40°43' E 029°21'7 7.6
2014-Oct-23 07:33N 40°46' E 029°13'8 8.4
2014-Oct-23 06:33N 40°50' E 029°03'8 7.4
2014-Oct-23 05:32N 40°56' E 028°57'  

Dump ship's entire track history